createdAt,value
2019-05-18T00:00:18.677Z,26.20
2019-05-18T00:02:47.164Z,27.07
2019-05-18T00:05:16.000Z,26.47
2019-05-18T00:07:44.664Z,26.10
2019-05-18T00:10:13.671Z,27.13
2019-05-18T00:12:42.216Z,27.53
2019-05-18T00:15:10.964Z,28.23
2019-05-18T00:17:39.503Z,29.37
2019-05-18T00:20:08.577Z,29.43
2019-05-18T00:22:37.121Z,28.67
2019-05-18T00:25:09.162Z,28.53
2019-05-18T00:27:37.726Z,28.73
2019-05-18T00:30:09.769Z,28.90
2019-05-18T00:32:38.312Z,28.90
2019-05-18T00:35:07.858Z,29.43
2019-05-18T00:37:36.496Z,30.03
2019-05-18T00:40:07.113Z,28.53
2019-05-18T00:42:35.595Z,29.43
2019-05-18T00:45:06.584Z,27.63
2019-05-18T00:47:41.437Z,29.73
2019-05-18T00:50:07.164Z,29.97
2019-05-18T00:52:35.754Z,27.83
2019-05-18T00:55:06.611Z,27.73
2019-05-18T00:57:35.104Z,27.27
2019-05-18T01:00:06.398Z,27.83
2019-05-18T01:02:34.897Z,27.70
2019-05-18T01:05:04.525Z,26.23
2019-05-18T01:07:33.033Z,28.03
2019-05-18T01:10:01.523Z,28.47
2019-05-18T01:12:30.072Z,28.13
2019-05-18T01:14:58.587Z,27.30
2019-05-18T01:17:27.156Z,27.43
2019-05-18T01:19:55.647Z,28.07
2019-05-18T01:22:24.187Z,26.47
2019-05-18T01:24:52.763Z,27.73
2019-05-18T01:27:21.317Z,25.67
2019-05-18T01:29:49.835Z,27.67
2019-05-18T01:32:18.353Z,26.50
2019-05-18T01:34:46.976Z,27.43
2019-05-18T01:37:15.451Z,28.27
2019-05-18T01:39:44.034Z,27.07
2019-05-18T01:42:12.580Z,28.63
2019-05-18T01:44:41.314Z,26.37
2019-05-18T01:47:09.807Z,29.20
2019-05-18T01:49:38.365Z,29.27
2019-05-18T01:52:06.948Z,30.67
2019-05-18T01:54:35.456Z,26.97
2019-05-18T01:57:03.935Z,29.00
2019-05-18T01:59:32.435Z,27.53
2019-05-18T02:02:00.991Z,28.50
2019-05-18T02:04:29.527Z,28.10
2019-05-18T02:06:58.043Z,29.33
2019-05-18T02:09:27.473Z,27.97
2019-05-18T02:11:55.991Z,28.50
2019-05-18T02:14:24.546Z,28.23
2019-05-18T02:16:53.091Z,26.50
2019-05-18T02:19:24.442Z,28.60
2019-05-18T02:21:52.191Z,29.30
2019-05-18T02:24:20.710Z,27.30
2019-05-18T02:26:49.318Z,28.37
2019-05-18T02:29:17.883Z,28.20
2019-05-18T02:31:46.426Z,28.60
2019-05-18T02:34:15.066Z,28.47
2019-05-18T02:36:43.591Z,28.37
2019-05-18T02:39:12.184Z,28.63
2019-05-18T02:41:40.675Z,28.87
2019-05-18T02:44:09.263Z,29.40
2019-05-18T02:46:37.805Z,29.63
2019-05-18T02:49:06.438Z,29.63
2019-05-18T02:51:35.022Z,30.60
2019-05-18T02:54:03.503Z,28.77
2019-05-18T02:56:32.012Z,29.87
2019-05-18T02:59:00.507Z,28.13
2019-05-18T03:01:28.972Z,30.37
2019-05-18T03:03:57.474Z,28.23
2019-05-18T03:06:25.972Z,31.83
2019-05-18T03:08:54.569Z,27.97
2019-05-18T03:11:23.077Z,28.10
2019-05-18T03:13:51.549Z,29.37
2019-05-18T03:16:20.065Z,30.13
2019-05-18T03:19:06.280Z,30.17
2019-05-18T03:21:18.764Z,30.33
2019-05-18T03:23:47.338Z,29.63
2019-05-18T03:26:15.910Z,29.60
2019-05-18T03:28:44.397Z,29.47
2019-05-18T03:31:12.875Z,31.23
2019-05-18T03:33:41.459Z,28.90
2019-05-18T03:36:10.021Z,29.23
2019-05-18T03:38:38.528Z,31.30
2019-05-18T03:41:07.039Z,29.43
2019-05-18T03:43:35.531Z,29.43
2019-05-18T03:46:04.153Z,31.50
2019-05-18T03:48:32.653Z,32.60
2019-05-18T03:51:01.278Z,30.33
2019-05-18T03:53:29.752Z,31.00
2019-05-18T03:55:58.270Z,31.47
2019-05-18T03:58:26.809Z,29.97
2019-05-18T04:00:55.310Z,30.50
2019-05-18T04:03:23.876Z,30.27
2019-05-18T04:05:52.359Z,31.20
2019-05-18T04:08:20.936Z,30.23
2019-05-18T04:10:49.455Z,31.33
2019-05-18T04:13:18.044Z,31.13
2019-05-18T04:15:46.548Z,30.67
2019-05-18T04:18:15.060Z,31.03
2019-05-18T04:20:43.567Z,30.30
2019-05-18T04:23:12.055Z,30.33
2019-05-18T04:25:43.740Z,30.93
2019-05-18T04:28:10.821Z,31.77
2019-05-18T04:30:39.328Z,29.53
2019-05-18T04:33:07.849Z,32.90
2019-05-18T04:35:36.364Z,31.60
2019-05-18T04:38:04.878Z,30.40
2019-05-18T04:40:33.456Z,30.50
2019-05-18T04:43:01.939Z,33.77
2019-05-18T04:45:30.463Z,29.97
2019-05-18T04:47:58.989Z,32.33
2019-05-18T04:50:27.597Z,30.03
2019-05-18T04:52:56.156Z,33.07
2019-05-18T04:55:24.636Z,31.63
2019-05-18T04:57:53.157Z,31.80
2019-05-18T05:00:21.712Z,33.23
2019-05-18T05:02:50.265Z,34.37
2019-05-18T05:05:18.742Z,29.87
2019-05-18T05:07:47.318Z,30.17
2019-05-18T05:10:15.959Z,30.93
2019-05-18T05:12:44.508Z,31.00
2019-05-18T05:15:13.062Z,30.40
2019-05-18T05:17:41.564Z,32.27
2019-05-18T05:20:19.395Z,31.80
2019-05-18T05:22:40.533Z,32.20
2019-05-18T05:25:09.137Z,31.17
2019-05-18T05:27:37.609Z,33.70
2019-05-18T05:30:08.248Z,31.60
2019-05-18T05:32:36.731Z,30.80
2019-05-18T05:35:06.545Z,31.70
2019-05-18T05:37:35.088Z,30.80
2019-05-18T05:40:05.188Z,31.67
2019-05-18T05:42:33.727Z,31.30
2019-05-18T05:45:02.268Z,31.93
2019-05-18T05:47:30.762Z,31.37
2019-05-18T05:49:59.325Z,31.33
2019-05-18T05:52:27.837Z,31.40
2019-05-18T05:54:56.327Z,34.40
2019-05-18T05:57:24.801Z,30.70
2019-05-18T05:59:53.297Z,32.90
2019-05-18T06:02:21.768Z,35.37
2019-05-18T06:04:51.086Z,32.87
2019-05-18T06:07:19.567Z,33.03
2019-05-18T06:09:48.053Z,33.17
2019-05-18T06:12:16.713Z,34.23
2019-05-18T06:14:45.227Z,32.93
2019-05-18T06:17:13.740Z,34.30
2019-05-18T06:19:42.381Z,32.90
2019-05-18T06:22:10.902Z,33.03
2019-05-18T06:24:39.451Z,32.97
2019-05-18T06:27:08.071Z,32.93
2019-05-18T06:29:36.618Z,33.73
2019-05-18T06:32:05.162Z,30.63
2019-05-18T06:34:33.657Z,33.23
2019-05-18T06:37:02.208Z,32.70
2019-05-18T06:39:30.702Z,32.90
2019-05-18T06:41:59.209Z,34.27
2019-05-18T06:44:27.713Z,33.03
2019-05-18T06:46:56.262Z,32.40
2019-05-18T06:49:24.750Z,34.73
2019-05-18T06:51:53.221Z,33.53
2019-05-18T06:54:21.698Z,34.40
2019-05-18T06:56:51.045Z,34.40
2019-05-18T06:59:19.948Z,33.03
2019-05-18T07:01:48.443Z,35.13
2019-05-18T07:04:17.008Z,32.00
2019-05-18T07:06:45.524Z,32.00
2019-05-18T07:09:14.614Z,35.37
2019-05-18T07:11:43.229Z,34.13
2019-05-18T07:14:24.987Z,33.50
2019-05-18T07:16:42.015Z,36.20
2019-05-18T07:19:10.577Z,35.27
2019-05-18T07:21:39.091Z,34.93
2019-05-18T07:24:07.615Z,34.63
2019-05-18T07:26:36.461Z,32.57
2019-05-18T07:29:05.739Z,34.27
2019-05-18T07:31:34.475Z,32.93
2019-05-18T07:34:03.125Z,34.77
2019-05-18T07:36:31.710Z,34.13
2019-05-18T07:39:00.698Z,33.67
2019-05-18T07:41:29.197Z,34.43
2019-05-18T07:43:57.747Z,34.83
2019-05-18T07:46:26.248Z,34.80
2019-05-18T07:48:54.726Z,35.37
2019-05-18T07:51:36.280Z,34.53
2019-05-18T07:53:53.443Z,33.80
2019-05-18T07:56:22.050Z,33.73
2019-05-18T07:58:50.593Z,33.77
2019-05-18T08:01:19.082Z,33.97
2019-05-18T08:03:47.673Z,35.77
2019-05-18T08:06:16.232Z,35.30
2019-05-18T08:08:44.850Z,37.30
2019-05-18T08:11:13.399Z,36.73
2019-05-18T08:13:41.966Z,33.80
2019-05-18T08:16:10.469Z,37.40
2019-05-18T08:18:39.014Z,36.67
2019-05-18T08:21:07.600Z,34.87
2019-05-18T08:23:36.069Z,35.23
2019-05-18T08:26:04.569Z,34.60
2019-05-18T08:28:33.133Z,34.90
2019-05-18T08:31:01.609Z,34.37
2019-05-18T08:33:30.168Z,34.57
2019-05-18T08:35:58.697Z,34.83
2019-05-18T08:38:27.170Z,36.37
2019-05-18T08:40:55.719Z,33.93
2019-05-18T08:43:24.223Z,31.97
2019-05-18T08:45:52.735Z,31.07
2019-05-18T08:48:21.223Z,32.63
2019-05-18T08:50:49.883Z,31.13
2019-05-18T08:53:18.491Z,32.17
2019-05-18T08:55:47.094Z,34.93
2019-05-18T08:58:15.556Z,33.40
2019-05-18T09:00:44.125Z,30.93
2019-05-18T09:03:12.702Z,28.03
2019-05-18T09:05:41.899Z,28.43
2019-05-18T09:08:10.413Z,26.87
2019-05-18T09:10:40.354Z,26.73
2019-05-18T09:13:08.853Z,33.73
2019-05-18T09:15:37.395Z,32.90
2019-05-18T09:18:05.956Z,33.00
2019-05-18T09:20:34.535Z,34.20
2019-05-18T09:23:03.060Z,30.67
2019-05-18T09:25:31.621Z,31.97
2019-05-18T09:28:00.106Z,33.33
2019-05-18T09:30:28.661Z,34.23
2019-05-18T09:32:57.829Z,33.50
2019-05-18T09:35:26.395Z,33.37
2019-05-18T09:37:55.029Z,34.77
2019-05-18T09:40:23.642Z,34.80
2019-05-18T09:42:52.358Z,34.67
2019-05-18T09:45:21.696Z,32.63
2019-05-18T09:47:50.396Z,33.07
2019-05-18T09:50:19.033Z,34.83
2019-05-18T09:52:47.533Z,34.17
2019-05-18T09:55:16.459Z,34.73
2019-05-18T09:57:44.967Z,34.10
2019-05-18T10:00:14.334Z,33.17
2019-05-18T10:02:42.914Z,35.37
2019-05-18T10:05:11.714Z,34.33
2019-05-18T10:07:40.267Z,31.93
2019-05-18T10:10:10.572Z,34.87
2019-05-18T10:12:39.162Z,32.90
2019-05-18T10:15:08.784Z,35.87
2019-05-18T10:17:37.294Z,31.30
2019-05-18T10:20:07.748Z,33.13
2019-05-18T10:22:36.311Z,32.83
2019-05-18T10:25:06.539Z,34.00
2019-05-18T10:27:35.145Z,32.37
2019-05-18T10:30:06.196Z,32.37
2019-05-18T10:32:34.746Z,31.77
2019-05-18T10:35:03.745Z,32.53
2019-05-18T10:37:32.329Z,33.13
2019-05-18T10:40:00.827Z,31.50
2019-05-18T10:42:29.409Z,28.53
2019-05-18T10:44:57.976Z,32.70
2019-05-18T10:47:26.476Z,30.60
2019-05-18T10:49:54.983Z,31.73
2019-05-18T10:52:23.540Z,30.07
2019-05-18T10:54:52.116Z,32.43
2019-05-18T10:57:20.628Z,32.10
2019-05-18T10:59:49.179Z,26.83
2019-05-18T11:02:17.762Z,29.33
2019-05-18T11:04:46.304Z,25.90
2019-05-18T11:07:14.842Z,26.43
2019-05-18T11:09:43.325Z,25.97
2019-05-18T11:12:11.802Z,24.60
2019-05-18T11:14:40.473Z,23.47
2019-05-18T11:17:09.027Z,25.07
2019-05-18T11:19:37.571Z,27.10
2019-05-18T11:22:06.975Z,21.30
2019-05-18T11:24:35.530Z,24.10
2019-05-18T11:27:04.257Z,23.83
2019-05-18T11:29:32.802Z,27.77
2019-05-18T11:32:01.381Z,27.67
2019-05-18T11:34:29.919Z,24.93
2019-05-18T11:36:58.516Z,26.07
2019-05-18T11:39:27.093Z,27.33
2019-05-18T11:41:55.568Z,30.33
2019-05-18T11:44:24.039Z,30.50
2019-05-18T11:46:52.696Z,30.50
2019-05-18T11:49:21.260Z,30.33
2019-05-18T11:51:49.908Z,29.10
2019-05-18T11:54:18.494Z,28.97
2019-05-18T11:56:47.032Z,28.43
2019-05-18T11:59:15.991Z,32.70
2019-05-18T12:01:44.563Z,29.63
2019-05-18T12:04:13.415Z,28.53
2019-05-18T12:06:42.075Z,29.70
2019-05-18T12:09:10.750Z,29.80
2019-05-18T12:11:39.305Z,30.23
2019-05-18T12:14:07.889Z,29.73
2019-05-18T12:16:36.534Z,28.20
2019-05-18T12:19:05.108Z,29.13
2019-05-18T12:21:33.715Z,29.77
2019-05-18T12:24:14.979Z,28.50
2019-05-18T12:26:32.492Z,27.03
2019-05-18T12:29:01.010Z,24.73
2019-05-18T12:31:29.492Z,27.30
2019-05-18T12:33:58.043Z,27.10
2019-05-18T12:36:26.632Z,28.47
2019-05-18T12:38:55.168Z,27.30
2019-05-18T12:41:43.082Z,28.83
2019-05-18T12:44:11.584Z,27.67
2019-05-18T12:46:40.179Z,27.60
2019-05-18T12:49:08.867Z,23.73
2019-05-18T12:51:38.037Z,23.23
2019-05-18T12:54:06.977Z,23.30
2019-05-18T12:56:35.483Z,23.00
2019-05-18T12:59:04.164Z,22.20
2019-05-18T13:01:32.648Z,21.70
2019-05-18T13:04:01.159Z,26.63
2019-05-18T13:06:29.954Z,27.90
2019-05-18T13:08:58.577Z,30.00
2019-05-18T13:11:27.071Z,30.57
2019-05-18T13:13:55.561Z,32.73
2019-05-18T13:16:24.340Z,28.87
2019-05-18T13:18:52.843Z,29.70
2019-05-18T13:21:21.348Z,27.57
2019-05-18T13:23:49.846Z,28.30
2019-05-18T13:26:18.324Z,29.30
2019-05-18T13:28:46.810Z,26.50
2019-05-18T13:31:15.323Z,30.63
2019-05-18T13:33:43.796Z,29.43
2019-05-18T13:36:12.445Z,29.87
2019-05-18T13:38:40.958Z,28.33
2019-05-18T13:41:09.536Z,30.53
2019-05-18T13:43:38.026Z,27.97
2019-05-18T13:46:06.696Z,28.00
2019-05-18T13:48:35.279Z,30.00
2019-05-18T13:51:03.837Z,27.07
2019-05-18T13:53:32.397Z,27.50
2019-05-18T13:56:01.811Z,27.97
2019-05-18T13:58:30.316Z,29.17
2019-05-18T14:00:58.908Z,27.13
2019-05-18T14:03:27.498Z,29.80
2019-05-18T14:05:55.987Z,28.83
2019-05-18T14:08:24.582Z,27.97
2019-05-18T14:10:53.113Z,27.83
2019-05-18T14:13:21.741Z,27.30
2019-05-18T14:15:50.270Z,27.13
2019-05-18T14:18:18.749Z,27.93
2019-05-18T14:20:47.272Z,26.43
2019-05-18T14:23:15.834Z,24.77
2019-05-18T14:25:46.135Z,28.60
2019-05-18T14:28:14.794Z,26.33
2019-05-18T14:30:43.365Z,25.77
2019-05-18T14:33:11.932Z,26.97
2019-05-18T14:35:40.403Z,25.57
2019-05-18T14:38:08.910Z,26.23
2019-05-18T14:40:37.400Z,26.67
2019-05-18T14:43:06.034Z,26.90
2019-05-18T14:45:34.618Z,26.40
2019-05-18T14:48:03.103Z,27.57
2019-05-18T14:50:32.044Z,26.40
2019-05-18T14:53:00.536Z,26.60
2019-05-18T14:55:33.773Z,25.97
2019-05-18T14:57:59.225Z,25.23
2019-05-18T15:00:27.784Z,24.73
2019-05-18T15:02:56.357Z,26.20
2019-05-18T15:05:24.834Z,24.57
2019-05-18T15:07:53.523Z,26.13
2019-05-18T15:10:22.189Z,26.00
2019-05-18T15:12:50.810Z,25.33
2019-05-18T15:15:19.531Z,25.87
2019-05-18T15:17:48.086Z,25.57
2019-05-18T15:20:17.686Z,26.30
2019-05-18T15:22:46.163Z,23.67
2019-05-18T15:25:14.748Z,23.73
2019-05-18T15:27:43.328Z,25.73
2019-05-18T15:30:12.249Z,26.43
2019-05-18T15:32:40.743Z,25.13
2019-05-18T15:35:10.429Z,26.70
2019-05-18T15:37:39.586Z,27.70
2019-05-18T15:40:09.376Z,25.23
2019-05-18T15:42:37.885Z,27.13
2019-05-18T15:45:08.511Z,25.63
2019-05-18T15:47:37.143Z,24.60
2019-05-18T15:50:06.656Z,25.27
2019-05-18T15:52:35.249Z,26.17
2019-05-18T15:55:05.361Z,22.20
2019-05-18T15:57:33.852Z,22.40
2019-05-18T16:00:06.369Z,20.03
2019-05-18T16:02:32.752Z,18.90
2019-05-18T16:05:01.281Z,20.73
2019-05-18T16:07:30.021Z,21.77
2019-05-18T16:09:58.514Z,20.47
2019-05-18T16:12:27.890Z,22.30
2019-05-18T16:14:56.466Z,24.37
2019-05-18T16:17:38.344Z,26.03
2019-05-18T16:19:55.158Z,24.53
2019-05-18T16:22:23.663Z,23.57
2019-05-18T16:24:52.169Z,25.37
2019-05-18T16:27:20.837Z,34.13
2019-05-18T16:29:49.356Z,24.60
2019-05-18T16:32:17.866Z,25.17
2019-05-18T16:34:46.423Z,25.00
2019-05-18T16:37:14.926Z,23.40
2019-05-18T16:39:43.405Z,26.07
2019-05-18T16:42:11.899Z,24.47
2019-05-18T16:44:40.391Z,24.07
2019-05-18T16:47:08.885Z,23.77
2019-05-18T16:49:37.467Z,24.30
2019-05-18T16:52:06.092Z,23.70
2019-05-18T16:54:34.658Z,23.53
2019-05-18T16:57:04.796Z,24.07
2019-05-18T16:59:33.282Z,24.20
2019-05-18T17:02:01.770Z,24.40
2019-05-18T17:04:30.277Z,23.23
2019-05-18T17:06:58.839Z,23.73
2019-05-18T17:09:27.427Z,23.50
2019-05-18T17:11:56.008Z,23.40
2019-05-18T17:14:24.664Z,22.63
2019-05-18T17:16:53.264Z,20.67
2019-05-18T17:19:21.867Z,23.57
2019-05-18T17:21:50.502Z,23.33
2019-05-18T17:24:19.008Z,23.37
2019-05-18T17:26:52.788Z,23.67
2019-05-18T17:29:17.809Z,22.53
2019-05-18T17:31:46.364Z,21.50
2019-05-18T17:34:15.174Z,22.07
2019-05-18T17:36:43.698Z,22.50
2019-05-18T17:39:12.196Z,23.63
2019-05-18T17:41:40.689Z,22.37
2019-05-18T17:44:09.253Z,23.97
2019-05-18T17:46:37.789Z,24.27
2019-05-18T17:49:06.300Z,21.57
2019-05-18T17:51:34.850Z,21.20
2019-05-18T17:54:03.424Z,23.13
2019-05-18T17:56:32.031Z,22.43
2019-05-18T17:59:00.614Z,23.43
2019-05-18T18:01:29.259Z,25.13
2019-05-18T18:03:57.753Z,25.77
2019-05-18T18:06:26.316Z,27.67
2019-05-18T18:08:54.865Z,28.30
2019-05-18T18:11:23.592Z,29.37
2019-05-18T18:13:52.085Z,29.33
2019-05-18T18:16:21.395Z,28.07
2019-05-18T18:18:49.969Z,26.80
2019-05-18T18:21:18.688Z,28.87
2019-05-18T18:23:53.940Z,26.97
2019-05-18T18:26:17.561Z,27.10
2019-05-18T18:28:46.090Z,26.93
2019-05-18T18:31:14.642Z,27.30
2019-05-18T18:34:02.528Z,28.10
2019-05-18T18:36:31.122Z,26.97
2019-05-18T18:38:59.630Z,26.90
2019-05-18T18:41:28.206Z,24.93
2019-05-18T18:43:56.707Z,24.73
2019-05-18T18:46:25.207Z,24.67
2019-05-18T18:48:53.774Z,24.90
2019-05-18T18:51:22.280Z,24.90
2019-05-18T18:53:50.853Z,25.63
2019-05-18T18:56:19.484Z,27.27
2019-05-18T18:58:48.012Z,26.67
2019-05-18T19:01:16.570Z,26.00
2019-05-18T19:03:45.124Z,26.93
2019-05-18T19:06:13.756Z,27.37
2019-05-18T19:08:42.329Z,27.20
2019-05-18T19:11:10.805Z,26.23
2019-05-18T19:13:39.409Z,26.03
2019-05-18T19:16:07.948Z,24.97
2019-05-18T19:18:36.491Z,23.10
2019-05-18T19:21:05.136Z,25.23
2019-05-18T19:23:33.712Z,27.97
2019-05-18T19:26:02.295Z,28.13
2019-05-18T19:28:30.796Z,29.17
2019-05-18T19:30:59.357Z,32.67
2019-05-18T19:33:27.858Z,32.30
2019-05-18T19:35:56.420Z,32.97
2019-05-18T19:38:24.960Z,35.53
2019-05-18T19:40:53.505Z,37.73
2019-05-18T19:43:22.032Z,40.07
2019-05-18T19:45:50.619Z,39.17
2019-05-18T19:48:19.176Z,41.97
2019-05-18T19:50:47.726Z,40.87
2019-05-18T19:53:16.276Z,40.83
2019-05-18T19:55:44.805Z,43.20
2019-05-18T19:58:13.948Z,43.53
2019-05-18T20:00:42.531Z,43.27
2019-05-18T20:03:11.214Z,46.43
2019-05-18T20:05:39.820Z,45.47
2019-05-18T20:08:08.400Z,47.30
2019-05-18T20:10:36.953Z,51.27
2019-05-18T20:13:05.441Z,47.33
2019-05-18T20:15:33.941Z,49.77
2019-05-18T20:18:02.512Z,47.57
2019-05-18T20:20:30.993Z,46.67
2019-05-18T20:22:59.505Z,47.27
2019-05-18T20:25:28.046Z,47.30
2019-05-18T20:27:56.609Z,47.60
2019-05-18T20:30:25.187Z,45.13
2019-05-18T20:32:53.693Z,49.13
2019-05-18T20:35:25.476Z,50.00
2019-05-18T20:37:52.449Z,50.83
2019-05-18T20:40:20.948Z,49.60
2019-05-18T20:42:49.502Z,49.63
2019-05-18T20:45:18.042Z,49.13
2019-05-18T20:47:46.557Z,49.70
2019-05-18T20:50:17.055Z,49.47
2019-05-18T20:52:45.562Z,47.57
2019-05-18T20:55:14.267Z,47.10
2019-05-18T20:57:42.752Z,50.63
2019-05-18T21:00:11.687Z,48.73
2019-05-18T21:02:40.237Z,47.57
2019-05-18T21:05:10.344Z,49.77
2019-05-18T21:07:38.939Z,48.80
2019-05-18T21:10:07.863Z,51.10
2019-05-18T21:12:36.412Z,49.10
2019-05-18T21:15:07.266Z,51.70
2019-05-18T21:17:35.811Z,50.60
2019-05-18T21:20:04.995Z,48.73
2019-05-18T21:22:33.471Z,50.47
2019-05-18T21:25:01.958Z,50.87
2019-05-18T21:27:31.486Z,49.70
2019-05-18T21:30:00.078Z,50.23
2019-05-18T21:32:28.874Z,49.07
2019-05-18T21:34:57.577Z,49.93
2019-05-18T21:37:26.327Z,51.90
2019-05-18T21:39:55.022Z,50.00
2019-05-18T21:42:23.583Z,49.47
2019-05-18T21:44:52.106Z,52.30
2019-05-18T21:47:20.608Z,50.50
2019-05-18T21:49:49.180Z,51.93
2019-05-18T21:52:17.845Z,54.67
2019-05-18T21:54:46.408Z,54.67
2019-05-18T21:57:14.944Z,51.20
2019-05-18T21:59:43.523Z,53.17
2019-05-18T22:02:12.226Z,51.37
2019-05-18T22:04:40.701Z,50.67
2019-05-18T22:07:09.325Z,51.50
2019-05-18T22:09:38.070Z,49.20
2019-05-18T22:12:06.802Z,51.33
2019-05-18T22:14:35.464Z,52.37
2019-05-18T22:17:04.162Z,49.20
2019-05-18T22:19:32.803Z,49.73
2019-05-18T22:22:01.294Z,51.03
2019-05-18T22:24:29.901Z,56.80
2019-05-18T22:26:58.917Z,51.23
2019-05-18T22:29:27.435Z,54.77
2019-05-18T22:31:56.001Z,52.80
2019-05-18T22:34:24.509Z,52.87
2019-05-18T22:36:53.270Z,49.80
2019-05-18T22:39:21.773Z,50.63
2019-05-18T22:41:50.256Z,52.43
2019-05-18T22:44:18.760Z,51.10
2019-05-18T22:46:47.261Z,52.43
2019-05-18T22:49:15.743Z,52.90
2019-05-18T22:51:44.293Z,49.53
2019-05-18T22:54:12.863Z,52.10
2019-05-18T22:56:41.480Z,52.90
2019-05-18T22:59:10.013Z,49.90
2019-05-18T23:01:38.626Z,49.47
2019-05-18T23:04:07.105Z,50.43
2019-05-18T23:06:35.656Z,51.63
2019-05-18T23:09:23.530Z,51.80
2019-05-18T23:11:52.094Z,48.83
2019-05-18T23:14:20.600Z,53.03
2019-05-18T23:16:49.085Z,50.13
2019-05-18T23:19:17.649Z,52.53
2019-05-18T23:21:46.144Z,51.13
2019-05-18T23:24:14.697Z,53.33
2019-05-18T23:26:43.238Z,51.37
2019-05-18T23:29:11.759Z,53.73
2019-05-18T23:31:40.316Z,52.03
2019-05-18T23:34:08.898Z,50.87
2019-05-18T23:36:37.379Z,52.90
2019-05-18T23:39:06.632Z,53.60
2019-05-18T23:41:35.274Z,51.17
2019-05-18T23:44:04.047Z,51.07
2019-05-18T23:46:32.595Z,50.63
2019-05-18T23:49:10.300Z,53.00
2019-05-18T23:51:31.334Z,51.23
2019-05-18T23:53:59.904Z,53.50
2019-05-18T23:56:28.380Z,51.23
2019-05-18T23:58:56.905Z,52.20
